Time;durP1;ratioP1;P1;durP2;ratioP2;P2;SDS_P1;SDS_P2;PMS_P1;PMS_P2;Temp;Humidity;BMP_temperature;BMP_pressure;BME280_temperature;BME280_humidity;BME280_pressure;Samples;Min_cycle;Max_cycle;Signal;HPM_P1;HPM_P2
2022/06/15 00:00:05;;;;;;;;;;;22.10;96.60;;;;;;5073450;28;19909;-54
2022/06/15 00:02:30;;;;;;;;;;;22.10;96.60;;;;;;5073089;28;20006;-54
2022/06/15 00:04:56;;;;;;;;;;;22.10;96.50;;;;;;5073352;28;19909;-55
2022/06/15 00:07:23;;;;;;;;;;;22.10;96.60;;;;;;5072912;28;20215;-54
2022/06/15 00:09:49;;;;;;;;;;;22.10;96.60;;;;;;5073688;28;20248;-53
2022/06/15 00:12:14;;;;;;;;;;;22.10;96.50;;;;;;5073537;28;19912;-55
2022/06/15 00:14:40;;;;;;;;;;;22.10;96.60;;;;;;5073629;28;20321;-53
2022/06/15 00:17:05;;;;;;;;;;;22.10;96.60;;;;;;5073578;28;20325;-53
2022/06/15 00:19:31;;;;;;;;;;;22.00;96.50;;;;;;5073288;28;19908;-53
2022/06/15 00:21:56;;;;;;;;;;;22.00;96.50;;;;;;5076933;28;19955;-55
2022/06/15 00:24:22;;;;;;;;;;;22.10;96.50;;;;;;5077170;28;19954;-53
2022/06/15 00:26:47;;;;;;;;;;;22.00;96.50;;;;;;5077189;28;20267;-53
2022/06/15 00:29:13;;;;;;;;;;;22.00;96.50;;;;;;5077107;28;19950;-53
2022/06/15 00:31:38;;;;;;;;;;;22.00;96.50;;;;;;5077240;28;19919;-51
2022/06/15 00:34:04;;;;;;;;;;;22.10;96.50;;;;;;5077022;28;19912;-53
2022/06/15 00:36:29;;;;;;;;;;;22.00;96.50;;;;;;5076765;28;19909;-51
2022/06/15 00:38:56;;;;;;;;;;;22.10;96.50;;;;;;5076995;28;19912;-53
2022/06/15 00:41:26;;;;;;;;;;;22.00;96.50;;;;;;5076906;28;19908;-55
2022/06/15 00:44:02;;;;;;;;;;;22.00;96.50;;;;;;5076915;28;19908;-55
2022/06/15 00:46:34;;;;;;;;;;;22.00;96.50;;;;;;5076912;28;19999;-52
2022/06/15 00:49:18;;;;;;;;;;;22.00;96.50;;;;;;5076701;28;19999;-53
2022/06/15 00:51:45;;;;;;;;;;;22.00;96.50;;;;;;5076665;28;19912;-55
2022/06/15 00:54:10;;;;;;;;;;;22.00;96.50;;;;;;5076452;28;19923;-54
2022/06/15 00:56:37;;;;;;;;;;;22.00;96.50;;;;;;5076673;28;19912;-54
2022/06/15 00:59:14;;;;;;;;;;;22.00;96.50;;;;;;5076648;28;19920;-55
2022/06/15 01:01:40;;;;;;;;;;;22.00;96.50;;;;;;5076528;28;20405;-56
2022/06/15 01:04:05;;;;;;;;;;;22.00;96.50;;;;;;5076408;28;19912;-54
2022/06/15 01:06:38;;;;;;;;;;;22.00;96.50;;;;;;5076746;28;19954;-50
2022/06/15 01:09:13;;;;;;;;;;;22.00;96.50;;;;;;5076478;28;19908;-54
2022/06/15 01:11:46;;;;;;;;;;;22.00;96.50;;;;;;5076549;28;19918;-52
2022/06/15 01:14:32;;;;;;;;;;;22.00;96.50;;;;;;5076363;28;19913;-54
2022/06/15 01:17:11;;;;;;;;;;;22.00;96.50;;;;;;5075914;28;19908;-51
2022/06/15 01:19:55;;;;;;;;;;;22.00;96.50;;;;;;5076070;28;19909;-56
2022/06/15 01:22:29;;;;;;;;;;;22.00;96.50;;;;;;5075726;28;19916;-55
2022/06/15 01:25:15;;;;;;;;;;;22.00;96.50;;;;;;5076037;28;19915;-53
2022/06/15 01:27:47;;;;;;;;;;;22.00;96.50;;;;;;5058386;28;19999;-55
2022/06/15 01:30:31;;;;;;;;;;;22.00;96.50;;;;;;5075986;28;19909;-50
2022/06/15 01:33:28;;;;;;;;;;;22.00;96.50;;;;;;5075015;28;19912;-53
2022/06/15 01:35:58;;;;;;;;;;;22.00;96.50;;;;;;5020247;28;20385;-55
2022/06/15 01:38:28;;;;;;;;;;;22.00;96.50;;;;;;5075786;28;19970;-51
2022/06/15 01:41:00;;;;;;;;;;;22.00;96.50;;;;;;5075765;28;19909;-55
2022/06/15 01:43:27;;;;;;;;;;;22.00;96.50;;;;;;5075502;28;19908;-51
2022/06/15 01:45:54;;;;;;;;;;;22.00;96.50;;;;;;5075373;28;20006;-52
2022/06/15 01:48:20;;;;;;;;;;;22.00;96.50;;;;;;5075578;28;19915;-55
2022/06/15 01:50:47;;;;;;;;;;;22.00;96.70;;;;;;5075513;28;19908;-52
2022/06/15 01:53:28;;;;;;;;;;;22.00;96.50;;;;;;5075185;28;20256;-54
2022/06/15 01:55:57;;;;;;;;;;;22.00;96.50;;;;;;5074949;28;20337;-55
2022/06/15 01:58:24;;;;;;;;;;;22.00;96.50;;;;;;5075345;28;19969;-54
2022/06/15 02:01:02;;;;;;;;;;;22.00;96.50;;;;;;5075060;28;20256;-52
2022/06/15 02:03:38;;;;;;;;;;;22.00;96.50;;;;;;5075150;28;19991;-55
2022/06/15 02:06:10;;;;;;;;;;;22.00;96.50;;;;;;5075139;28;19908;-53
2022/06/15 02:08:35;;;;;;;;;;;22.00;96.50;;;;;;5075197;28;19916;-56
2022/06/15 02:11:15;;;;;;;;;;;22.00;96.70;;;;;;5074962;28;20343;-55
2022/06/15 02:13:46;;;;;;;;;;;22.00;96.50;;;;;;5074895;28;20465;-53
2022/06/15 02:16:19;;;;;;;;;;;22.00;96.50;;;;;;5074980;28;19962;-56
2022/06/15 02:18:46;;;;;;;;;;;22.00;96.40;;;;;;5074802;28;19977;-54
2022/06/15 02:21:15;;;;;;;;;;;22.00;96.50;;;;;;5056795;28;19915;-55
2022/06/15 02:23:42;;;;;;;;;;;22.00;96.50;;;;;;5056785;28;20398;-55
2022/06/15 02:26:08;;;;;;;;;;;22.00;96.50;;;;;;5074638;28;19914;-53
2022/06/15 02:28:37;;;;;;;;;;;21.90;96.50;;;;;;5074367;28;19919;-51
2022/06/15 02:31:02;;;;;;;;;;;22.00;96.50;;;;;;5074292;28;19951;-54
2022/06/15 02:33:32;;;;;;;;;;;22.00;96.50;;;;;;5056543;28;19967;-54
2022/06/15 02:35:59;;;;;;;;;;;22.00;96.50;;;;;;5074291;28;19908;-54
2022/06/15 02:38:26;;;;;;;;;;;22.00;96.50;;;;;;5074260;28;19912;-53
2022/06/15 02:40:51;;;;;;;;;;;22.00;96.50;;;;;;5074185;28;19912;-55
2022/06/15 02:43:19;;;;;;;;;;;22.00;96.50;;;;;;5074402;28;19909;-54
2022/06/15 02:45:47;;;;;;;;;;;22.00;96.50;;;;;;5074098;28;19954;-55
2022/06/15 02:48:13;;;;;;;;;;;21.90;96.40;;;;;;5074097;28;19962;-52
2022/06/15 02:50:45;;;;;;;;;;;21.90;96.50;;;;;;5074312;28;20335;-55
2022/06/15 02:53:15;;;;;;;;;;;21.90;96.50;;;;;;5074257;28;19920;-53
2022/06/15 02:55:42;;;;;;;;;;;21.90;96.50;;;;;;5073739;28;19979;-56
2022/06/15 02:58:14;;;;;;;;;;;21.90;96.50;;;;;;5074316;28;20046;-54
2022/06/15 03:00:40;;;;;;;;;;;21.90;96.50;;;;;;5074255;28;19915;-54
2022/06/15 03:03:06;;;;;;;;;;;21.90;96.50;;;;;;5074004;28;19920;-55
2022/06/15 03:05:31;;;;;;;;;;;21.90;96.50;;;;;;5056081;28;19951;-56
2022/06/15 03:07:57;;;;;;;;;;;21.90;96.50;;;;;;5074306;28;19916;-55
2022/06/15 03:10:23;;;;;;;;;;;21.90;96.40;;;;;;5074498;28;19916;-55
2022/06/15 03:12:48;;;;;;;;;;;21.90;96.50;;;;;;5074066;28;19953;-55
2022/06/15 03:15:14;;;;;;;;;;;21.90;96.40;;;;;;5073804;28;19953;-53
2022/06/15 03:17:39;;;;;;;;;;;21.90;96.70;;;;;;5073857;28;19916;-52
2022/06/15 03:20:05;;;;;;;;;;;21.90;96.40;;;;;;5074142;28;19912;-55
2022/06/15 03:22:34;;;;;;;;;;;21.90;96.50;;;;;;5074087;28;19920;-52
2022/06/15 03:25:00;;;;;;;;;;;21.90;96.50;;;;;;5074030;28;19909;-51
2022/06/15 03:27:25;;;;;;;;;;;21.90;96.50;;;;;;5073974;28;19909;-53
2022/06/15 03:29:50;;;;;;;;;;;21.90;96.50;;;;;;5073562;28;20045;-55
2022/06/15 03:32:17;;;;;;;;;;;21.90;96.50;;;;;;5073492;28;19923;-53
2022/06/15 03:34:42;;;;;;;;;;;21.90;96.50;;;;;;5073370;28;19950;-54
2022/06/15 03:37:08;;;;;;;;;;;21.90;96.50;;;;;;5073514;28;20349;-55
2022/06/15 03:39:33;;;;;;;;;;;21.90;96.40;;;;;;5073553;28;19909;-53
2022/06/15 03:42:06;;;;;;;;;;;21.90;96.40;;;;;;5073861;28;19909;-53
2022/06/15 03:44:31;;;;;;;;;;;21.90;96.40;;;;;;5073522;28;20417;-55
2022/06/15 03:46:58;;;;;;;;;;;21.90;96.40;;;;;;5073791;28;19909;-54
2022/06/15 03:49:23;;;;;;;;;;;22.00;96.50;;;;;;5073838;28;19915;-51
2022/06/15 03:51:48;;;;;;;;;;;21.90;96.50;;;;;;5073659;28;19921;-51
2022/06/15 03:54:14;;;;;;;;;;;22.00;96.50;;;;;;5073493;28;19909;-53
2022/06/15 03:56:44;;;;;;;;;;;22.00;96.50;;;;;;5077193;28;19908;-51
2022/06/15 03:59:10;;;;;;;;;;;22.00;96.40;;;;;;5042982;28;19908;-52
2022/06/15 04:01:35;;;;;;;;;;;22.00;96.40;;;;;;5077400;28;19916;-50
2022/06/15 04:04:00;;;;;;;;;;;22.00;96.40;;;;;;5077574;28;19999;-53
2022/06/15 04:06:26;;;;;;;;;;;22.00;96.40;;;;;;5077092;28;19909;-55
2022/06/15 04:08:52;;;;;;;;;;;22.00;96.40;;;;;;5077464;28;19909;-55
2022/06/15 04:14:04;;;;;;;;;;;22.00;96.40;;;;;;5077122;28;19987;-55
2022/06/15 04:16:30;;;;;;;;;;;22.00;96.50;;;;;;5077297;28;19915;-54
2022/06/15 04:18:56;;;;;;;;;;;22.00;96.50;;;;;;5077097;28;19920;-52
2022/06/15 04:21:22;;;;;;;;;;;22.00;96.50;;;;;;5077198;28;20371;-53
2022/06/15 04:23:47;;;;;;;;;;;22.00;96.50;;;;;;5076898;28;19944;-55
2022/06/15 04:26:13;;;;;;;;;;;22.00;96.50;;;;;;5077028;28;20325;-52
2022/06/15 04:28:39;;;;;;;;;;;22.00;96.50;;;;;;5077106;28;19912;-54
2022/06/15 04:31:05;;;;;;;;;;;22.00;96.50;;;;;;5077039;28;19914;-53
2022/06/15 04:33:31;;;;;;;;;;;22.00;96.50;;;;;;5076504;28;19921;-54
2022/06/15 04:35:56;;;;;;;;;;;22.00;96.50;;;;;;5076644;28;19908;-53
2022/06/15 04:38:22;;;;;;;;;;;22.00;96.50;;;;;;5076721;28;19961;-53
2022/06/15 04:40:47;;;;;;;;;;;22.00;96.40;;;;;;5076792;28;19909;-51
2022/06/15 04:43:13;;;;;;;;;;;22.00;96.50;;;;;;5076332;28;19908;-53
2022/06/15 04:45:38;;;;;;;;;;;22.00;96.40;;;;;;5076413;28;19909;-52
2022/06/15 04:48:04;;;;;;;;;;;22.00;96.40;;;;;;5076631;28;19915;-55
2022/06/15 04:50:30;;;;;;;;;;;22.00;96.40;;;;;;5076937;28;19915;-51
2022/06/15 04:52:56;;;;;;;;;;;22.00;96.40;;;;;;5076457;28;20062;-55
2022/06/15 04:55:23;;;;;;;;;;;22.10;96.50;;;;;;5076245;28;19921;-54
2022/06/15 04:57:53;;;;;;;;;;;22.10;96.50;;;;;;5076348;28;19916;-50
2022/06/15 05:00:18;;;;;;;;;;;22.10;96.50;;;;;;5076101;28;20244;-54
2022/06/15 05:02:45;;;;;;;;;;;22.10;96.50;;;;;;5076370;28;19954;-54
2022/06/15 05:05:10;;;;;;;;;;;22.10;96.40;;;;;;5076306;28;19959;-52
2022/06/15 05:07:36;;;;;;;;;;;22.10;96.40;;;;;;5075292;28;19977;-52
2022/06/15 05:10:03;;;;;;;;;;;22.10;96.40;;;;;;5076024;28;19908;-52
2022/06/15 05:12:29;;;;;;;;;;;22.20;96.40;;;;;;5058190;28;20287;-51
2022/06/15 05:14:54;;;;;;;;;;;22.10;96.40;;;;;;5075782;28;19913;-54
2022/06/15 05:17:21;;;;;;;;;;;22.10;96.50;;;;;;5075702;28;19966;-54
2022/06/15 05:19:46;;;;;;;;;;;22.10;96.40;;;;;;5075775;28;19916;-51
2022/06/15 05:22:12;;;;;;;;;;;22.10;96.50;;;;;;5075962;28;19908;-52
2022/06/15 05:24:38;;;;;;;;;;;22.10;96.50;;;;;;5075628;28;19948;-55
2022/06/15 05:27:03;;;;;;;;;;;22.10;96.50;;;;;;5075474;28;19912;-56
2022/06/15 05:29:29;;;;;;;;;;;22.10;96.50;;;;;;5075414;28;19947;-55
2022/06/15 05:31:55;;;;;;;;;;;22.10;96.50;;;;;;5075257;28;19923;-52
2022/06/15 05:34:20;;;;;;;;;;;22.10;96.50;;;;;;5075686;28;19912;-55
2022/06/15 05:36:46;;;;;;;;;;;22.10;96.50;;;;;;5075335;28;19990;-53
2022/06/15 05:39:13;;;;;;;;;;;22.10;96.50;;;;;;5075299;28;19974;-54
2022/06/15 05:41:39;;;;;;;;;;;22.10;96.50;;;;;;5057651;28;19909;-55
2022/06/15 05:46:39;;;;;;;;;;;22.10;96.50;;;;;;5075351;28;20346;-54
2022/06/15 05:49:05;;;;;;;;;;;22.10;96.50;;;;;;5075393;28;19909;-55
2022/06/15 05:51:30;;;;;;;;;;;22.10;96.50;;;;;;5075009;28;19913;-53
2022/06/15 05:53:56;;;;;;;;;;;22.10;96.50;;;;;;5075203;28;20309;-53
2022/06/15 05:56:22;;;;;;;;;;;22.10;96.50;;;;;;5075268;28;20303;-54
2022/06/15 05:58:47;;;;;;;;;;;22.10;96.50;;;;;;5074956;28;19908;-54
2022/06/15 06:01:25;;;;;;;;;;;22.10;96.50;;;;;;5057204;28;19958;-55
2022/06/15 06:03:50;;;;;;;;;;;22.10;96.50;;;;;;5057094;28;20111;-54
2022/06/15 06:06:16;;;;;;;;;;;22.10;96.50;;;;;;5074781;28;20271;-55
2022/06/15 06:08:41;;;;;;;;;;;22.10;96.50;;;;;;5074400;28;19912;-50
2022/06/15 06:11:07;;;;;;;;;;;22.20;96.50;;;;;;5074416;28;20348;-55
2022/06/15 06:13:32;;;;;;;;;;;22.10;96.50;;;;;;5074700;28;20054;-54
2022/06/15 06:15:58;;;;;;;;;;;22.20;96.50;;;;;;5056855;28;19954;-53
2022/06/15 06:18:23;;;;;;;;;;;22.10;96.40;;;;;;5073863;28;19909;-52
2022/06/15 06:20:49;;;;;;;;;;;22.20;96.50;;;;;;5056394;28;19931;-55
2022/06/15 06:23:15;;;;;;;;;;;22.20;96.50;;;;;;5074636;28;19916;-52
2022/06/15 06:25:44;;;;;;;;;;;22.10;96.50;;;;;;5056608;28;19912;-53
2022/06/15 06:28:25;;;;;;;;;;;22.10;96.50;;;;;;5074148;28;19909;-54
2022/06/15 06:30:50;;;;;;;;;;;22.10;96.50;;;;;;5074559;28;19916;-55
2022/06/15 06:33:16;;;;;;;;;;;22.10;96.50;;;;;;5073967;28;19917;-55
2022/06/15 06:35:42;;;;;;;;;;;22.10;96.50;;;;;;5074229;28;19914;-53
2022/06/15 06:38:09;;;;;;;;;;;22.10;96.50;;;;;;5074279;28;19913;-53
2022/06/15 06:40:34;;;;;;;;;;;22.10;96.50;;;;;;5056014;28;19916;-53
2022/06/15 06:43:00;;;;;;;;;;;22.10;96.50;;;;;;5073756;28;19912;-53
2022/06/15 06:45:25;;;;;;;;;;;22.10;96.60;;;;;;5074029;28;19908;-53
2022/06/15 06:47:52;;;;;;;;;;;22.10;96.60;;;;;;5074192;28;19916;-55
2022/06/15 06:50:18;;;;;;;;;;;22.10;96.60;;;;;;5074004;28;19909;-55
2022/06/15 06:52:43;;;;;;;;;;;22.10;96.50;;;;;;5073793;28;19917;-56
2022/06/15 06:55:09;;;;;;;;;;;22.10;96.60;;;;;;5073469;28;19920;-55
2022/06/15 06:57:35;;;;;;;;;;;22.10;96.60;;;;;;5055945;28;20262;-55
2022/06/15 07:00:00;;;;;;;;;;;22.10;96.60;;;;;;5073792;28;19913;-54
2022/06/15 07:02:26;;;;;;;;;;;22.10;96.60;;;;;;5056416;28;20314;-53
2022/06/15 07:04:51;;;;;;;;;;;22.10;96.60;;;;;;5073779;28;20010;-55
2022/06/15 07:07:17;;;;;;;;;;;22.10;96.60;;;;;;5073957;28;19908;-55
2022/06/15 07:09:42;;;;;;;;;;;22.10;96.60;;;;;;5073825;28;20003;-56
2022/06/15 07:12:08;;;;;;;;;;;22.10;96.60;;;;;;5073985;28;19952;-56
2022/06/15 07:14:33;;;;;;;;;;;22.10;96.60;;;;;;5055899;28;20327;-55
2022/06/15 07:16:59;;;;;;;;;;;22.10;96.60;;;;;;5073552;28;19908;-53
2022/06/15 07:19:25;;;;;;;;;;;22.10;96.60;;;;;;5073903;28;19908;-54
2022/06/15 07:21:50;;;;;;;;;;;22.10;96.60;;;;;;5074284;28;20417;-55
2022/06/15 07:24:16;;;;;;;;;;;22.10;96.60;;;;;;5073906;28;19915;-55
2022/06/15 07:26:43;;;;;;;;;;;22.10;96.60;;;;;;5073547;28;19916;-54
2022/06/15 07:29:10;;;;;;;;;;;22.10;96.60;;;;;;5073156;28;19909;-54
2022/06/15 07:31:38;;;;;;;;;;;22.10;96.60;;;;;;5055223;28;19909;-54
2022/06/15 07:34:04;;;;;;;;;;;22.10;96.60;;;;;;5073462;28;19997;-53
2022/06/15 07:36:30;;;;;;;;;;;22.10;96.60;;;;;;5073442;28;19913;-51
2022/06/15 07:38:56;;;;;;;;;;;22.00;96.60;;;;;;5073582;28;20382;-52
2022/06/15 07:41:23;;;;;;;;;;;22.10;96.70;;;;;;5073495;28;19909;-53
2022/06/15 07:43:49;;;;;;;;;;;22.00;96.60;;;;;;5073293;28;20328;-51
2022/06/15 07:46:14;;;;;;;;;;;22.00;96.70;;;;;;5073922;28;20408;-55
2022/06/15 07:51:24;;;;;;;;;;;22.00;96.70;;;;;;5073695;28;20270;-54
2022/06/15 07:53:50;;;;;;;;;;;22.10;96.70;;;;;;5055547;28;19913;-56
2022/06/15 07:56:15;;;;;;;;;;;22.10;96.70;;;;;;5072971;28;20363;-55
2022/06/15 07:58:41;;;;;;;;;;;22.10;96.70;;;;;;5073426;28;19966;-53
2022/06/15 08:01:06;;;;;;;;;;;22.10;96.70;;;;;;5073369;28;19954;-56
2022/06/15 08:03:32;;;;;;;;;;;22.10;96.70;;;;;;5073186;28;20236;-53
2022/06/15 08:05:58;;;;;;;;;;;22.10;96.70;;;;;;5073296;28;19999;-53
2022/06/15 08:08:24;;;;;;;;;;;22.10;96.60;;;;;;5073397;28;19916;-52
2022/06/15 08:10:50;;;;;;;;;;;22.10;96.70;;;;;;5073430;28;19908;-56
2022/06/15 08:13:17;;;;;;;;;;;22.10;96.70;;;;;;5073295;28;19923;-54
2022/06/15 08:15:44;;;;;;;;;;;22.10;96.60;;;;;;5073484;28;19909;-52
2022/06/15 08:18:11;;;;;;;;;;;22.10;96.60;;;;;;5055451;28;19915;-54
2022/06/15 08:20:46;;;;;;;;;;;22.10;96.70;;;;;;5073185;28;19954;-55
2022/06/15 08:23:16;;;;;;;;;;;22.10;96.70;;;;;;5073258;28;20377;-55
2022/06/15 08:25:44;;;;;;;;;;;22.10;96.60;;;;;;5073386;28;20244;-55
2022/06/15 08:28:11;;;;;;;;;;;22.10;96.70;;;;;;5073163;28;19908;-53
2022/06/15 08:30:37;;;;;;;;;;;22.10;96.70;;;;;;5072911;28;19956;-53
2022/06/15 08:33:06;;;;;;;;;;;22.10;96.70;;;;;;5072893;28;20334;-56
2022/06/15 08:35:32;;;;;;;;;;;22.10;96.70;;;;;;5073086;28;19991;-50
2022/06/15 08:37:58;;;;;;;;;;;22.10;96.70;;;;;;5072964;28;19955;-54
2022/06/15 08:40:25;;;;;;;;;;;22.10;96.70;;;;;;5055061;28;19909;-52
2022/06/15 08:42:59;;;;;;;;;;;22.10;96.70;;;;;;5058068;28;19913;-52
2022/06/15 08:45:31;;;;;;;;;;;22.10;96.70;;;;;;5076582;28;19908;-55
2022/06/15 08:48:15;;;;;;;;;;;22.10;96.70;;;;;;5076312;28;20013;-55
2022/06/15 08:50:59;;;;;;;;;;;22.10;96.70;;;;;;5076227;28;19912;-55
2022/06/15 08:53:29;;;;;;;;;;;22.10;96.70;;;;;;5076240;28;19917;-52
2022/06/15 08:56:07;;;;;;;;;;;22.10;96.70;;;;;;5075987;28;19928;-55
2022/06/15 08:58:39;;;;;;;;;;;22.10;96.70;;;;;;5076201;28;19908;-53
2022/06/15 09:01:07;;;;;;;;;;;22.10;96.80;;;;;;5075982;28;19909;-51
2022/06/15 09:03:39;;;;;;;;;;;22.10;96.80;;;;;;5075900;28;19909;-55
2022/06/15 09:06:04;;;;;;;;;;;22.10;96.80;;;;;;5057805;28;19909;-55
2022/06/15 09:08:30;;;;;;;;;;;22.10;96.80;;;;;;5076174;28;19958;-53
2022/06/15 09:11:01;;;;;;;;;;;22.10;96.70;;;;;;5075971;28;20320;-56
2022/06/15 09:13:33;;;;;;;;;;;22.10;96.70;;;;;;5075656;28;19916;-55
2022/06/15 09:16:03;;;;;;;;;;;22.10;96.80;;;;;;5075862;28;19909;-52
2022/06/15 09:18:31;;;;;;;;;;;22.10;96.70;;;;;;5075815;28;19940;-54
2022/06/15 09:21:29;;;;;;;;;;;22.10;96.80;;;;;;5058043;28;19908;-56
2022/06/15 09:24:04;;;;;;;;;;;22.10;96.80;;;;;;5020544;28;19920;-53
2022/06/15 09:26:37;;;;;;;;;;;22.10;96.80;;;;;;5075738;28;19961;-53
2022/06/15 09:29:20;;;;;;;;;;;22.10;96.80;;;;;;5075860;28;19909;-52
2022/06/15 09:31:51;;;;;;;;;;;22.10;96.80;;;;;;5075872;28;19923;-54
2022/06/15 09:34:30;;;;;;;;;;;22.20;96.80;;;;;;5075346;28;19966;-51
2022/06/15 09:36:56;;;;;;;;;;;22.10;96.70;;;;;;5075902;28;19912;-54
2022/06/15 09:39:22;;;;;;;;;;;22.20;96.80;;;;;;5075211;28;19938;-56
2022/06/15 09:42:00;;;;;;;;;;;22.20;96.80;;;;;;5075160;28;19908;-55
2022/06/15 09:44:44;;;;;;;;;;;22.20;96.80;;;;;;5057565;28;20354;-53
2022/06/15 09:47:28;;;;;;;;;;;22.10;96.80;;;;;;5075187;28;19908;-53
2022/06/15 09:50:06;;;;;;;;;;;22.10;96.80;;;;;;5057081;28;19916;-56
2022/06/15 09:52:43;;;;;;;;;;;22.20;96.80;;;;;;5056766;28;19963;-52
2022/06/15 09:55:13;;;;;;;;;;;22.20;96.80;;;;;;5074956;28;19958;-55
2022/06/15 09:57:40;;;;;;;;;;;22.20;96.80;;;;;;5074968;28;20271;-55
2022/06/15 10:00:07;;;;;;;;;;;22.10;96.80;;;;;;5075227;28;19908;-53
2022/06/15 10:02:35;;;;;;;;;;;22.20;96.80;;;;;;5074812;28;19912;-53
2022/06/15 10:05:01;;;;;;;;;;;22.10;96.80;;;;;;5074839;28;20003;-55
2022/06/15 10:07:34;;;;;;;;;;;22.20;96.80;;;;;;5074478;28;19962;-55
2022/06/15 10:10:15;;;;;;;;;;;22.10;96.80;;;;;;5075337;28;19995;-55
2022/06/15 10:13:02;;;;;;;;;;;22.10;96.80;;;;;;5074504;28;19956;-53
2022/06/15 10:15:28;;;;;;;;;;;22.20;96.80;;;;;;5075157;28;20295;-56
2022/06/15 10:17:56;;;;;;;;;;;22.20;96.80;;;;;;5074171;28;20327;-55
2022/06/15 10:20:41;;;;;;;;;;;22.10;96.80;;;;;;5074368;28;20414;-54
2022/06/15 10:23:16;;;;;;;;;;;22.20;96.80;;;;;;5074501;28;20007;-55
2022/06/15 10:25:47;;;;;;;;;;;22.20;96.80;;;;;;5075148;28;19913;-54
2022/06/15 10:28:17;;;;;;;;;;;22.20;96.80;;;;;;5056060;28;19967;-53
2022/06/15 10:31:04;;;;;;;;;;;22.20;96.90;;;;;;5074557;28;19916;-54
2022/06/15 10:33:36;;;;;;;;;;;22.20;96.80;;;;;;5074382;28;19916;-56
2022/06/15 10:36:01;;;;;;;;;;;22.20;96.90;;;;;;5074161;28;19978;-55
2022/06/15 10:38:27;;;;;;;;;;;22.10;96.80;;;;;;5074589;28;19912;-52
2022/06/15 10:40:53;;;;;;;;;;;22.20;96.90;;;;;;5074174;28;19915;-54
2022/06/15 10:43:23;;;;;;;;;;;22.20;96.90;;;;;;5074055;28;19915;-54
2022/06/15 10:45:57;;;;;;;;;;;22.20;96.80;;;;;;5074315;28;19977;-56
2022/06/15 10:48:42;;;;;;;;;;;22.10;96.80;;;;;;5073919;28;19915;-56
2022/06/15 10:51:35;;;;;;;;;;;22.20;96.90;;;;;;5056220;28;20003;-53
2022/06/15 10:54:21;;;;;;;;;;;22.20;96.90;;;;;;5069647;28;20011;-51
2022/06/15 11:02:14;;;;;;;;;;;22.20;96.90;;;;;;5074014;28;19909;-55
2022/06/15 11:04:46;;;;;;;;;;;22.20;96.90;;;;;;5073301;28;19909;-54
2022/06/15 11:07:14;;;;;;;;;;;22.20;96.90;;;;;;5073831;28;19913;-54
2022/06/15 11:09:42;;;;;;;;;;;22.20;96.90;;;;;;5073725;28;20438;-52
2022/06/15 11:12:22;;;;;;;;;;;22.20;96.90;;;;;;5073765;28;19919;-52
2022/06/15 11:14:53;;;;;;;;;;;22.20;97.10;;;;;;5073628;28;19920;-54
2022/06/15 11:20:05;;;;;;;;;;;22.20;96.90;;;;;;5073645;28;20434;-54
2022/06/15 11:22:33;;;;;;;;;;;22.20;96.90;;;;;;5073657;28;19920;-55
2022/06/15 11:25:06;;;;;;;;;;;22.20;96.90;;;;;;5073746;28;20397;-54
2022/06/15 11:27:35;;;;;;;;;;;22.20;96.90;;;;;;5073307;28;19995;-56
2022/06/15 11:30:17;;;;;;;;;;;22.20;96.90;;;;;;5073525;28;19966;-56
2022/06/15 11:32:44;;;;;;;;;;;22.20;96.90;;;;;;5073733;28;19983;-55
2022/06/15 11:35:13;;;;;;;;;;;22.20;96.90;;;;;;5073466;28;20274;-53
2022/06/15 11:37:46;;;;;;;;;;;22.20;96.90;;;;;;5073314;28;20313;-56
2022/06/15 11:40:36;;;;;;;;;;;22.20;96.90;;;;;;5073463;28;19909;-52
2022/06/15 11:43:02;;;;;;;;;;;22.20;96.90;;;;;;5073600;28;19918;-54
2022/06/15 11:45:38;;;;;;;;;;;22.20;96.90;;;;;;5073381;28;19909;-56
2022/06/15 11:48:04;;;;;;;;;;;22.20;96.90;;;;;;5073513;28;19910;-52
2022/06/15 11:50:32;;;;;;;;;;;22.20;96.90;;;;;;5073455;28;19969;-53
2022/06/15 11:53:01;;;;;;;;;;;22.20;96.90;;;;;;5073133;28;19916;-55
2022/06/15 11:55:29;;;;;;;;;;;22.20;96.90;;;;;;5073492;28;19928;-55
2022/06/15 11:58:10;;;;;;;;;;;22.20;96.90;;;;;;5073307;28;20370;-56
2022/06/15 12:00:38;;;;;;;;;;;22.20;96.90;;;;;;5073246;28;19908;-54
2022/06/15 12:03:24;;;;;;;;;;;22.20;96.90;;;;;;5072965;28;19958;-54
2022/06/15 12:05:57;;;;;;;;;;;22.20;96.90;;;;;;5022257;28;20003;-53
2022/06/15 12:08:41;;;;;;;;;;;22.20;96.90;;;;;;5073387;28;19943;-55
2022/06/15 12:12:37;;;;;;;;;;;22.20;96.90;;;;;;5073378;28;20318;-55
2022/06/15 12:14:21;;;;;;;;;;;22.20;96.90;;;;;;5073183;28;19985;-54
2022/06/15 12:17:00;;;;;;;;;;;22.20;96.90;;;;;;5075159;28;19943;-54
2022/06/15 12:19:25;;;;;;;;;;;22.20;96.90;;;;;;5076695;28;19915;-52
2022/06/15 12:21:51;;;;;;;;;;;22.20;96.80;;;;;;5076644;28;19912;-54
2022/06/15 12:24:16;;;;;;;;;;;22.20;96.80;;;;;;5076486;28;20065;-54
2022/06/15 12:26:52;;;;;;;;;;;22.20;96.80;;;;;;5076712;28;19912;-53
2022/06/15 12:29:24;;;;;;;;;;;22.20;96.90;;;;;;5059033;28;19944;-56
2022/06/15 12:31:57;;;;;;;;;;;22.30;96.90;;;;;;5076691;28;19920;-54
2022/06/15 12:34:48;;;;;;;;;;;22.30;96.90;;;;;;5076534;28;19931;-54
2022/06/15 12:37:43;;;;;;;;;;;22.20;96.90;;;;;;5038224;28;19915;-55
2022/06/15 12:40:16;;;;;;;;;;;22.20;96.90;;;;;;4987693;28;19910;-55
2022/06/15 12:42:44;;;;;;;;;;;22.20;96.90;;;;;;5076695;28;19931;-54
2022/06/15 12:45:22;;;;;;;;;;;22.30;96.90;;;;;;5076601;28;19952;-56
2022/06/15 12:47:57;;;;;;;;;;;22.30;96.90;;;;;;5058631;28;19908;-51
2022/06/15 12:50:42;;;;;;;;;;;22.30;96.90;;;;;;5076542;28;19915;-53
2022/06/15 12:53:08;;;;;;;;;;;22.30;96.90;;;;;;5058628;28;20438;-51
2022/06/15 12:55:40;;;;;;;;;;;22.30;96.90;;;;;;5076643;28;19974;-56
2022/06/15 12:58:12;;;;;;;;;;;22.30;96.90;;;;;;5076689;28;19908;-54
2022/06/15 13:00:37;;;;;;;;;;;22.20;96.90;;;;;;5076318;28;20363;-55
2022/06/15 13:03:06;;;;;;;;;;;22.30;96.90;;;;;;5076354;28;19915;-54
2022/06/15 13:05:35;;;;;;;;;;;22.30;96.90;;;;;;5076702;28;19913;-56
2022/06/15 13:08:16;;;;;;;;;;;22.30;96.90;;;;;;5058203;28;20354;-56
2022/06/15 13:11:04;;;;;;;;;;;22.30;96.90;;;;;;5075868;28;19920;-55
2022/06/15 13:13:32;;;;;;;;;;;22.30;96.90;;;;;;5062229;28;19924;-56
2022/06/15 13:15:59;;;;;;;;;;;22.30;96.90;;;;;;5076343;28;19930;-55
2022/06/15 13:18:42;;;;;;;;;;;22.20;96.90;;;;;;5075929;28;19909;-53
2022/06/15 13:21:09;;;;;;;;;;;22.30;96.90;;;;;;5075874;28;19955;-56
2022/06/15 13:23:37;;;;;;;;;;;22.30;96.90;;;;;;5058076;28;19947;-51
2022/06/15 13:26:17;;;;;;;;;;;22.20;96.90;;;;;;5075429;28;19959;-52
2022/06/15 13:28:45;;;;;;;;;;;22.30;96.90;;;;;;5074353;28;20351;-55
2022/06/15 13:31:30;;;;;;;;;;;22.30;96.90;;;;;;5075678;28;19909;-54
2022/06/15 13:33:57;;;;;;;;;;;22.30;96.90;;;;;;5074912;28;19921;-53
2022/06/15 13:36:23;;;;;;;;;;;22.30;96.90;;;;;;5075206;28;19909;-56
2022/06/15 13:38:50;;;;;;;;;;;22.20;96.90;;;;;;5075304;28;19916;-56
2022/06/15 13:41:20;;;;;;;;;;;22.20;96.90;;;;;;5075653;28;19954;-55
2022/06/15 13:43:46;;;;;;;;;;;22.30;96.90;;;;;;5075310;28;20356;-54
2022/06/15 13:46:27;;;;;;;;;;;22.20;96.90;;;;;;5075476;28;19908;-54
2022/06/15 13:48:56;;;;;;;;;;;22.20;96.90;;;;;;5075090;28;19963;-51
2022/06/15 13:51:35;;;;;;;;;;;22.20;96.90;;;;;;5075023;28;19920;-53
2022/06/15 13:54:36;;;;;;;;;;;22.20;96.90;;;;;;5075021;28;20415;-54
2022/06/15 13:57:12;;;;;;;;;;;22.30;96.90;;;;;;4974307;28;19926;-53
2022/06/15 14:00:03;;;;;;;;;;;22.30;97.00;;;;;;5061361;28;19995;-55
2022/06/15 14:02:54;;;;;;;;;;;22.20;97.00;;;;;;5035580;28;19913;-53
2022/06/15 14:05:29;;;;;;;;;;;22.20;96.90;;;;;;5075054;28;19909;-52
2022/06/15 14:08:14;;;;;;;;;;;22.30;97.00;;;;;;5074865;28;19985;-54
2022/06/15 14:10:48;;;;;;;;;;;22.20;96.90;;;;;;5075209;28;19911;-54
2022/06/15 14:13:21;;;;;;;;;;;22.20;97.00;;;;;;5074582;28;19912;-53
2022/06/15 14:16:06;;;;;;;;;;;22.20;97.00;;;;;;5074624;28;19912;-54
2022/06/15 14:18:31;;;;;;;;;;;22.20;97.00;;;;;;5075168;28;19918;-53
2022/06/15 14:20:57;;;;;;;;;;;22.20;97.00;;;;;;5056800;28;19908;-55
2022/06/15 14:23:34;;;;;;;;;;;22.20;97.00;;;;;;5074470;28;19936;-54
2022/06/15 14:26:00;;;;;;;;;;;22.20;97.00;;;;;;5074856;28;20309;-52
2022/06/15 14:28:27;;;;;;;;;;;22.20;97.00;;;;;;5074668;28;19985;-55
2022/06/15 14:31:04;;;;;;;;;;;22.20;97.00;;;;;;5056453;28;19908;-52
2022/06/15 14:33:30;;;;;;;;;;;22.20;97.00;;;;;;5074591;28;19974;-54
2022/06/15 14:36:00;;;;;;;;;;;22.20;97.00;;;;;;5074233;28;19920;-55
2022/06/15 14:38:29;;;;;;;;;;;22.20;97.00;;;;;;5073816;28;20264;-51
2022/06/15 14:41:07;;;;;;;;;;;22.20;97.00;;;;;;5073911;28;19909;-54
2022/06/15 14:43:36;;;;;;;;;;;22.20;97.00;;;;;;5074592;28;19944;-54
2022/06/15 14:46:02;;;;;;;;;;;22.20;97.00;;;;;;5074331;28;20367;-53
2022/06/15 14:48:35;;;;;;;;;;;22.20;97.00;;;;;;5074053;28;19965;-54